createdAt,value
2018-05-25T00:00:07.100Z,3.08
2018-05-25T00:00:19.624Z,3.08
2018-05-25T00:00:32.042Z,3.08
2018-05-25T00:00:44.461Z,3.08
2018-05-25T00:00:56.875Z,3.08
2018-05-25T00:01:09.306Z,3.08
2018-05-25T00:01:21.727Z,3.06
2018-05-25T00:01:34.135Z,3.06
2018-05-25T00:01:46.675Z,3.06
2018-05-25T00:01:59.082Z,3.06
2018-05-25T00:02:11.500Z,3.06
2018-05-25T00:02:23.905Z,3.06
2018-05-25T00:02:36.313Z,3.06
2018-05-25T00:02:48.712Z,3.06
2018-05-25T00:03:01.105Z,3.06
2018-05-25T00:03:13.532Z,3.06
2018-05-25T00:03:25.946Z,3.06
2018-05-25T00:03:38.353Z,3.06
2018-05-25T00:03:50.767Z,3.06
2018-05-25T00:04:03.184Z,3.06
2018-05-25T00:04:15.590Z,3.06
2018-05-25T00:04:28.002Z,3.06
2018-05-25T00:04:40.435Z,3.06
2018-05-25T00:04:52.833Z,3.06
2018-05-25T00:05:05.257Z,3.06
2018-05-25T00:05:17.842Z,3.06
2018-05-25T00:05:30.293Z,3.06
2018-05-25T00:05:42.709Z,3.06
2018-05-25T00:05:55.167Z,3.06
2018-05-25T00:06:07.584Z,3.06
2018-05-25T00:06:20.011Z,3.06
2018-05-25T00:06:32.406Z,3.06
2018-05-25T00:06:44.813Z,3.06
2018-05-25T00:06:57.208Z,3.06
2018-05-25T00:07:09.666Z,3.06
2018-05-25T00:07:22.078Z,3.06
2018-05-25T00:07:34.500Z,3.06
2018-05-25T00:07:46.926Z,3.06
2018-05-25T00:07:59.343Z,3.06
2018-05-25T00:08:11.749Z,3.06
2018-05-25T00:08:24.175Z,3.06
2018-05-25T00:08:36.574Z,3.06
2018-05-25T00:08:48.982Z,3.06
2018-05-25T00:09:01.390Z,3.06
2018-05-25T00:09:13.791Z,3.06
2018-05-25T00:09:26.193Z,3.06
2018-05-25T00:09:38.631Z,3.06
2018-05-25T00:09:51.044Z,3.06
2018-05-25T00:10:03.468Z,3.06
2018-05-25T00:10:15.912Z,3.06
2018-05-25T00:10:28.315Z,3.06
2018-05-25T00:10:40.736Z,3.06
2018-05-25T00:10:53.162Z,3.06
2018-05-25T00:11:05.573Z,3.06
2018-05-25T00:11:17.986Z,3.06
2018-05-25T00:11:30.383Z,2.87
2018-05-25T00:11:42.791Z,2.87
2018-05-25T00:11:55.206Z,2.87
2018-05-25T00:12:07.617Z,2.87
2018-05-25T00:12:20.027Z,2.87
2018-05-25T00:12:32.434Z,2.87
2018-05-25T00:12:44.842Z,2.87
2018-05-25T00:12:57.250Z,2.87
2018-05-25T00:13:09.651Z,2.87
2018-05-25T00:13:22.041Z,2.87
2018-05-25T00:13:34.464Z,2.87
2018-05-25T00:13:46.874Z,2.87
2018-05-25T00:13:59.288Z,2.87
2018-05-25T00:14:11.721Z,2.87
2018-05-25T00:14:24.139Z,2.87
2018-05-25T00:14:36.554Z,2.87
2018-05-25T00:14:48.951Z,2.87
2018-05-25T00:15:01.367Z,2.87
2018-05-25T00:15:13.860Z,2.87
2018-05-25T00:15:26.271Z,2.87
2018-05-25T00:15:38.685Z,2.87
2018-05-25T00:15:51.091Z,2.87
2018-05-25T00:16:03.490Z,2.87
2018-05-25T00:16:15.890Z,2.87
2018-05-25T00:16:28.296Z,2.87
2018-05-25T00:16:40.692Z,2.87
2018-05-25T00:16:53.099Z,2.87
2018-05-25T00:17:05.523Z,2.87
2018-05-25T00:17:17.927Z,2.87
2018-05-25T00:17:30.339Z,2.87
2018-05-25T00:17:42.754Z,2.87
2018-05-25T00:17:55.849Z,2.87
2018-05-25T00:18:08.274Z,2.87
2018-05-25T00:18:20.913Z,2.87
2018-05-25T00:18:33.334Z,2.87
2018-05-25T00:18:45.789Z,2.87
2018-05-25T00:18:58.207Z,2.87
2018-05-25T00:19:10.615Z,2.87
2018-05-25T00:19:23.030Z,2.87
2018-05-25T00:19:35.434Z,2.87
2018-05-25T00:19:47.835Z,2.87
2018-05-25T00:20:00.237Z,2.87
2018-05-25T00:20:12.646Z,2.87
2018-05-25T00:20:25.060Z,2.87
2018-05-25T00:20:37.479Z,2.87
2018-05-25T00:20:49.875Z,2.87
2018-05-25T00:21:02.287Z,2.87
2018-05-25T00:21:14.697Z,2.87
2018-05-25T00:21:27.115Z,3.31
2018-05-25T00:21:39.512Z,3.31
2018-05-25T00:21:51.909Z,3.31
2018-05-25T00:22:04.315Z,3.31
2018-05-25T00:22:16.731Z,3.31
2018-05-25T00:22:29.138Z,3.31
2018-05-25T00:22:41.554Z,3.31
2018-05-25T00:22:54.123Z,3.31
2018-05-25T00:23:06.583Z,3.31
2018-05-25T00:23:18.990Z,3.31
2018-05-25T00:23:31.393Z,3.31
2018-05-25T00:23:43.795Z,3.31
2018-05-25T00:23:56.196Z,3.31
2018-05-25T00:24:08.601Z,3.31
2018-05-25T00:24:21.030Z,3.31
2018-05-25T00:24:33.440Z,3.31
2018-05-25T00:24:46.087Z,3.31
2018-05-25T00:24:58.943Z,3.31
2018-05-25T00:25:11.367Z,3.31
2018-05-25T00:25:23.778Z,3.31
2018-05-25T00:25:36.195Z,3.31
2018-05-25T00:25:48.613Z,3.31
2018-05-25T00:26:01.023Z,3.31
2018-05-25T00:26:13.436Z,3.31
2018-05-25T00:26:25.847Z,3.31
2018-05-25T00:26:38.261Z,3.31
2018-05-25T00:26:50.672Z,3.31
2018-05-25T00:27:03.073Z,3.31
2018-05-25T00:27:15.489Z,3.31
2018-05-25T00:27:27.918Z,3.31
2018-05-25T00:27:40.327Z,3.31
2018-05-25T00:27:52.897Z,3.31
2018-05-25T00:28:05.296Z,3.31
2018-05-25T00:28:17.696Z,3.31
2018-05-25T00:28:30.102Z,3.31
2018-05-25T00:28:42.515Z,3.31
2018-05-25T00:28:54.920Z,3.31
2018-05-25T00:29:07.339Z,3.31
2018-05-25T00:29:19.758Z,3.31
2018-05-25T00:29:32.193Z,3.31
2018-05-25T00:29:44.596Z,3.31
2018-05-25T00:29:57.002Z,3.31
2018-05-25T00:30:09.413Z,3.31
2018-05-25T00:30:21.824Z,3.31
2018-05-25T00:30:34.224Z,3.31
2018-05-25T00:30:46.653Z,3.31
2018-05-25T00:30:59.080Z,3.31
2018-05-25T00:31:11.499Z,3.31
2018-05-25T00:31:23.901Z,3.05
2018-05-25T00:31:36.342Z,3.05
2018-05-25T00:31:48.749Z,3.05
2018-05-25T00:32:01.184Z,3.05
2018-05-25T00:32:13.587Z,3.05
2018-05-25T00:32:25.995Z,3.05
2018-05-25T00:32:38.410Z,3.05
2018-05-25T00:32:50.877Z,3.05
2018-05-25T00:33:03.306Z,3.05
2018-05-25T00:33:15.763Z,3.05
2018-05-25T00:33:28.185Z,3.05
2018-05-25T00:33:40.611Z,3.05
2018-05-25T00:33:53.012Z,3.05
2018-05-25T00:34:05.425Z,3.05
2018-05-25T00:34:17.834Z,3.05
2018-05-25T00:34:30.240Z,3.05
2018-05-25T00:34:42.653Z,3.05
2018-05-25T00:34:55.058Z,3.05
2018-05-25T00:35:07.469Z,3.05
2018-05-25T00:35:19.891Z,3.05
2018-05-25T00:35:32.311Z,3.05
2018-05-25T00:35:44.712Z,3.05
2018-05-25T00:35:57.165Z,3.05
2018-05-25T00:36:09.575Z,3.05
2018-05-25T00:36:21.981Z,3.05
2018-05-25T00:36:34.413Z,3.05
2018-05-25T00:36:46.801Z,3.05
2018-05-25T00:36:59.209Z,3.05
2018-05-25T00:37:11.616Z,3.05
2018-05-25T00:37:24.035Z,3.05
2018-05-25T00:37:36.431Z,3.05
2018-05-25T00:37:48.908Z,3.05
2018-05-25T00:38:01.325Z,3.05
2018-05-25T00:38:13.876Z,3.05
2018-05-25T00:38:26.278Z,3.05
2018-05-25T00:38:38.673Z,3.05
2018-05-25T00:38:51.069Z,3.05
2018-05-25T00:39:03.468Z,3.05
2018-05-25T00:39:15.882Z,3.05
2018-05-25T00:39:28.268Z,3.05
2018-05-25T00:39:40.672Z,3.05
2018-05-25T00:39:53.061Z,3.05
2018-05-25T00:40:05.466Z,3.05
2018-05-25T00:40:17.877Z,3.05
2018-05-25T00:40:30.295Z,3.05
2018-05-25T00:40:42.697Z,3.05
2018-05-25T00:40:55.297Z,3.05
2018-05-25T00:41:07.735Z,3.05
2018-05-25T00:41:20.175Z,3.05
2018-05-25T00:41:32.632Z,2.96
2018-05-25T00:41:45.015Z,2.96
2018-05-25T00:41:57.418Z,2.96
2018-05-25T00:42:09.829Z,2.96
2018-05-25T00:42:22.239Z,2.96
2018-05-25T00:42:34.644Z,2.96
2018-05-25T00:42:47.065Z,2.96
2018-05-25T00:42:59.471Z,2.96
2018-05-25T00:43:11.891Z,2.96
2018-05-25T00:43:24.291Z,2.96
2018-05-25T00:43:36.701Z,2.96
2018-05-25T00:43:49.099Z,2.96
2018-05-25T00:44:01.511Z,2.96
2018-05-25T00:44:13.901Z,2.96
2018-05-25T00:44:26.305Z,2.96
2018-05-25T00:44:38.696Z,2.96
2018-05-25T00:44:51.096Z,2.96
2018-05-25T00:45:03.496Z,2.96
2018-05-25T00:45:15.908Z,2.96
2018-05-25T00:45:28.314Z,2.96
2018-05-25T00:45:40.717Z,2.96
2018-05-25T00:45:53.139Z,2.96
2018-05-25T00:46:05.584Z,2.96
2018-05-25T00:46:18.018Z,2.96
2018-05-25T00:46:30.421Z,2.96
2018-05-25T00:46:42.825Z,2.96
2018-05-25T00:46:55.223Z,2.96
2018-05-25T00:47:07.667Z,2.96
2018-05-25T00:47:20.072Z,2.96
2018-05-25T00:47:32.500Z,2.96
2018-05-25T00:47:44.910Z,2.96
2018-05-25T00:47:57.306Z,2.96
2018-05-25T00:48:09.710Z,2.96
2018-05-25T00:48:22.263Z,2.96
2018-05-25T00:48:34.713Z,2.96
2018-05-25T00:48:47.181Z,2.96
2018-05-25T00:48:59.591Z,2.96
2018-05-25T00:49:12.005Z,2.96
2018-05-25T00:49:24.402Z,2.96
2018-05-25T00:49:37.146Z,2.96
2018-05-25T00:49:49.605Z,2.96
2018-05-25T00:50:01.997Z,2.96
2018-05-25T00:50:14.407Z,2.96
2018-05-25T00:50:27.197Z,2.96
2018-05-25T00:50:39.813Z,2.96
2018-05-25T00:50:52.218Z,2.96
2018-05-25T00:51:04.618Z,2.96
2018-05-25T00:51:17.027Z,2.96
2018-05-25T00:51:29.440Z,2.82
2018-05-25T00:51:41.835Z,2.82
2018-05-25T00:51:54.289Z,2.82
2018-05-25T00:52:06.697Z,2.82
2018-05-25T00:52:19.239Z,2.82
2018-05-25T00:52:31.636Z,2.82
2018-05-25T00:52:44.021Z,2.82
2018-05-25T00:52:56.414Z,2.82
2018-05-25T00:53:08.809Z,2.82
2018-05-25T00:53:21.245Z,2.82
2018-05-25T00:53:33.657Z,2.82
2018-05-25T00:53:46.054Z,2.82
2018-05-25T00:53:58.464Z,2.82
2018-05-25T00:54:10.865Z,2.82
2018-05-25T00:54:23.278Z,2.82
2018-05-25T00:54:35.678Z,2.82
2018-05-25T00:54:48.230Z,2.82
2018-05-25T00:55:00.672Z,2.82
2018-05-25T00:55:13.220Z,2.82
2018-05-25T00:55:25.622Z,2.82
2018-05-25T00:55:38.050Z,2.82
2018-05-25T00:55:50.508Z,2.82
2018-05-25T00:56:02.908Z,2.82
2018-05-25T00:56:15.293Z,2.82
2018-05-25T00:56:27.690Z,2.82
2018-05-25T00:56:40.149Z,2.82
2018-05-25T00:56:52.555Z,2.82
2018-05-25T00:57:04.950Z,2.82
2018-05-25T00:57:17.395Z,2.82
2018-05-25T00:57:29.794Z,2.82
2018-05-25T00:57:42.198Z,2.82
2018-05-25T00:57:54.628Z,2.82
2018-05-25T00:58:07.048Z,2.82
2018-05-25T00:58:19.459Z,2.82
2018-05-25T00:58:31.856Z,2.82
2018-05-25T00:58:44.280Z,2.82
2018-05-25T00:58:56.683Z,2.82
2018-05-25T00:59:09.085Z,2.82
2018-05-25T00:59:21.493Z,2.82
2018-05-25T00:59:33.936Z,2.82
2018-05-25T00:59:46.390Z,2.82
2018-05-25T00:59:58.789Z,2.82
2018-05-25T01:00:11.198Z,2.82
2018-05-25T01:00:23.644Z,2.82
2018-05-25T01:00:36.238Z,2.82
2018-05-25T01:00:48.672Z,2.82
2018-05-25T01:01:01.101Z,2.82
2018-05-25T01:01:13.538Z,2.82
2018-05-25T01:01:25.963Z,3.1
2018-05-25T01:01:38.376Z,3.1
2018-05-25T01:01:50.972Z,3.1
2018-05-25T01:02:03.392Z,3.1
2018-05-25T01:02:15.777Z,3.1
2018-05-25T01:02:28.176Z,3.1
2018-05-25T01:02:40.581Z,3.1
2018-05-25T01:02:52.985Z,3.1
2018-05-25T01:03:05.390Z,3.1
2018-05-25T01:03:17.821Z,3.1
2018-05-25T01:03:30.230Z,3.1
2018-05-25T01:03:42.644Z,3.1
2018-05-25T01:03:55.046Z,3.1
2018-05-25T01:04:07.432Z,3.1
2018-05-25T01:04:19.841Z,3.1
2018-05-25T01:04:32.307Z,3.1
2018-05-25T01:04:44.758Z,3.1
2018-05-25T01:04:57.180Z,3.1
2018-05-25T01:05:09.751Z,3.1
2018-05-25T01:05:22.174Z,3.1
2018-05-25T01:05:34.583Z,3.1
2018-05-25T01:05:46.984Z,3.1
2018-05-25T01:05:59.394Z,3.1
2018-05-25T01:06:11.805Z,3.1
2018-05-25T01:06:24.255Z,3.1
2018-05-25T01:06:36.655Z,3.1
2018-05-25T01:06:49.072Z,3.1
2018-05-25T01:07:01.467Z,3.1
2018-05-25T01:07:13.868Z,3.1
2018-05-25T01:07:26.263Z,3.1
2018-05-25T01:07:38.676Z,3.1
2018-05-25T01:07:51.091Z,3.1
2018-05-25T01:08:03.504Z,3.1
2018-05-25T01:08:15.898Z,3.1
2018-05-25T01:08:28.317Z,3.1
2018-05-25T01:08:40.722Z,3.1
2018-05-25T01:08:53.124Z,3.1
2018-05-25T01:09:05.559Z,3.1
2018-05-25T01:09:17.962Z,3.1
2018-05-25T01:09:30.379Z,3.1
2018-05-25T01:09:42.778Z,3.1
2018-05-25T01:09:55.199Z,3.1
2018-05-25T01:10:07.621Z,3.1
2018-05-25T01:10:20.024Z,3.1
2018-05-25T01:10:32.439Z,3.1
2018-05-25T01:10:44.860Z,3.1
2018-05-25T01:10:57.256Z,3.1
2018-05-25T01:11:09.664Z,3.1
2018-05-25T01:11:22.079Z,2.94
2018-05-25T01:11:34.467Z,2.94
2018-05-25T01:11:46.893Z,2.94
2018-05-25T01:11:59.295Z,2.94
2018-05-25T01:12:11.869Z,2.94
2018-05-25T01:12:24.271Z,2.94
2018-05-25T01:12:36.737Z,2.94
2018-05-25T01:12:49.134Z,2.94
2018-05-25T01:13:01.544Z,2.94
2018-05-25T01:13:13.939Z,2.94
2018-05-25T01:13:26.348Z,2.94
2018-05-25T01:13:38.741Z,2.94
2018-05-25T01:13:51.136Z,2.94
2018-05-25T01:14:03.533Z,2.94
2018-05-25T01:14:15.949Z,2.94
2018-05-25T01:14:28.359Z,2.94
2018-05-25T01:14:40.751Z,2.94
2018-05-25T01:14:53.160Z,2.94
2018-05-25T01:15:05.828Z,2.94
2018-05-25T01:15:18.232Z,2.94
2018-05-25T01:15:30.630Z,2.94
2018-05-25T01:15:43.029Z,2.94
2018-05-25T01:15:55.439Z,2.94
2018-05-25T01:16:07.866Z,2.94
2018-05-25T01:16:20.282Z,2.94
2018-05-25T01:16:32.677Z,2.94
2018-05-25T01:16:45.082Z,2.94
2018-05-25T01:16:57.492Z,2.94
2018-05-25T01:17:09.940Z,2.94
2018-05-25T01:17:22.348Z,2.94
2018-05-25T01:17:34.746Z,2.94
2018-05-25T01:17:47.167Z,2.94
2018-05-25T01:17:59.896Z,2.94
2018-05-25T01:18:12.475Z,2.94
2018-05-25T01:18:25.012Z,2.94
2018-05-25T01:18:37.409Z,2.94
2018-05-25T01:18:49.810Z,2.94
2018-05-25T01:19:02.202Z,2.94
2018-05-25T01:19:14.624Z,2.94
2018-05-25T01:19:27.015Z,2.94
2018-05-25T01:19:39.418Z,2.94
2018-05-25T01:19:51.821Z,2.94
2018-05-25T01:20:04.239Z,2.94
2018-05-25T01:20:16.645Z,2.94
2018-05-25T01:20:29.043Z,2.94
2018-05-25T01:20:41.453Z,2.94
2018-05-25T01:20:53.851Z,2.94
2018-05-25T01:21:06.247Z,2.94
2018-05-25T01:21:18.660Z,2.94
2018-05-25T01:21:31.055Z,3.15
2018-05-25T01:21:43.478Z,3.15
2018-05-25T01:21:55.882Z,3.15
2018-05-25T01:22:08.273Z,3.15
2018-05-25T01:22:20.665Z,3.15
2018-05-25T01:22:33.091Z,3.15
2018-05-25T01:22:45.500Z,3.15
2018-05-25T01:22:57.979Z,3.15
2018-05-25T01:23:10.381Z,3.15
2018-05-25T01:23:22.783Z,3.15
2018-05-25T01:23:35.215Z,3.15
2018-05-25T01:23:47.616Z,3.15
2018-05-25T01:24:00.019Z,3.15
2018-05-25T01:24:12.427Z,3.15
2018-05-25T01:24:24.836Z,3.15
2018-05-25T01:24:37.238Z,3.15
2018-05-25T01:24:49.640Z,3.15
2018-05-25T01:25:02.031Z,3.15
2018-05-25T01:25:14.458Z,3.15
2018-05-25T01:25:26.851Z,3.15
2018-05-25T01:25:39.260Z,3.15
2018-05-25T01:25:51.655Z,3.15
2018-05-25T01:26:04.064Z,3.15
2018-05-25T01:26:16.464Z,3.15
2018-05-25T01:26:28.864Z,3.15
2018-05-25T01:26:41.308Z,3.15
2018-05-25T01:26:53.716Z,3.15
2018-05-25T01:27:06.131Z,3.15
2018-05-25T01:27:18.558Z,3.15
2018-05-25T01:27:30.967Z,3.15
2018-05-25T01:27:43.644Z,3.15
2018-05-25T01:27:56.049Z,3.15
2018-05-25T01:28:08.450Z,3.15
2018-05-25T01:28:20.843Z,3.15
2018-05-25T01:28:33.268Z,3.15
2018-05-25T01:28:45.662Z,3.15
2018-05-25T01:28:58.066Z,3.15
2018-05-25T01:29:10.465Z,3.15
2018-05-25T01:29:22.885Z,3.15
2018-05-25T01:29:35.291Z,3.15
2018-05-25T01:29:47.690Z,3.15
2018-05-25T01:30:00.092Z,3.15
2018-05-25T01:30:12.492Z,3.15
2018-05-25T01:30:24.904Z,3.15
2018-05-25T01:30:37.303Z,3.15
2018-05-25T01:30:49.703Z,3.15
2018-05-25T01:31:02.112Z,3.15
2018-05-25T01:31:14.512Z,3.15
2018-05-25T01:31:26.911Z,2.94
2018-05-25T01:31:39.335Z,2.94
2018-05-25T01:31:51.731Z,2.94
2018-05-25T01:32:04.141Z,2.94
2018-05-25T01:32:16.547Z,2.94
2018-05-25T01:32:28.962Z,2.94
2018-05-25T01:32:41.366Z,2.94
2018-05-25T01:32:53.849Z,2.94
2018-05-25T01:33:06.264Z,2.94
2018-05-25T01:33:18.687Z,2.94
2018-05-25T01:33:31.083Z,2.94
2018-05-25T01:33:43.498Z,2.94
2018-05-25T01:33:55.897Z,2.94
2018-05-25T01:34:08.328Z,2.94
2018-05-25T01:34:20.740Z,2.94
2018-05-25T01:34:33.136Z,2.94
2018-05-25T01:34:45.550Z,2.94
2018-05-25T01:34:57.994Z,2.94
2018-05-25T01:35:10.383Z,2.94
2018-05-25T01:35:22.799Z,2.94
2018-05-25T01:35:35.201Z,2.94
2018-05-25T01:35:47.607Z,2.94
2018-05-25T01:36:00.006Z,2.94
2018-05-25T01:36:12.401Z,2.94
2018-05-25T01:36:24.797Z,2.94
2018-05-25T01:36:37.203Z,2.94
2018-05-25T01:36:49.606Z,2.94
2018-05-25T01:37:02.015Z,2.94
2018-05-25T01:37:14.409Z,2.94
2018-05-25T01:37:26.807Z,2.94
2018-05-25T01:37:39.224Z,2.94
2018-05-25T01:37:51.663Z,2.94
2018-05-25T01:38:04.071Z,2.94
2018-05-25T01:38:16.681Z,2.94
2018-05-25T01:38:29.077Z,2.94
2018-05-25T01:38:41.618Z,2.94
2018-05-25T01:38:54.004Z,2.94
2018-05-25T01:39:06.412Z,2.94
2018-05-25T01:39:18.812Z,2.94
2018-05-25T01:39:31.231Z,2.94
2018-05-25T01:39:43.631Z,2.94
2018-05-25T01:39:56.067Z,2.94
2018-05-25T01:40:08.466Z,2.94
2018-05-25T01:40:20.860Z,2.94
2018-05-25T01:40:33.256Z,2.94
2018-05-25T01:40:45.659Z,2.94
2018-05-25T01:40:58.143Z,2.94
2018-05-25T01:41:10.557Z,2.94
2018-05-25T01:41:22.959Z,2.94
2018-05-25T01:41:35.366Z,2.83
2018-05-25T01:41:47.806Z,2.83
2018-05-25T01:42:00.214Z,2.83
2018-05-25T01:42:12.623Z,2.83
2018-05-25T01:42:25.034Z,2.83
2018-05-25T01:42:37.425Z,2.83
2018-05-25T01:42:49.840Z,2.83
2018-05-25T01:43:02.267Z,2.83
2018-05-25T01:43:14.690Z,2.83
2018-05-25T01:43:27.084Z,2.83
2018-05-25T01:43:39.490Z,2.83
2018-05-25T01:43:51.898Z,2.83
2018-05-25T01:44:04.309Z,2.83
2018-05-25T01:44:16.707Z,2.83
2018-05-25T01:44:29.112Z,2.83
2018-05-25T01:44:41.525Z,2.83
2018-05-25T01:44:53.964Z,2.83
2018-05-25T01:45:06.383Z,2.83
2018-05-25T01:45:18.801Z,2.83
2018-05-25T01:45:31.227Z,2.83
2018-05-25T01:45:43.663Z,2.83
2018-05-25T01:45:56.083Z,2.83
2018-05-25T01:46:08.494Z,2.83
2018-05-25T01:46:20.896Z,2.83
2018-05-25T01:46:33.386Z,2.83
2018-05-25T01:46:45.799Z,2.83
2018-05-25T01:46:58.246Z,2.83
2018-05-25T01:47:10.652Z,2.83
2018-05-25T01:47:23.063Z,2.83
2018-05-25T01:47:35.468Z,2.83
2018-05-25T01:47:47.871Z,2.83
2018-05-25T01:48:00.285Z,2.83
2018-05-25T01:48:12.722Z,2.83
2018-05-25T01:48:25.287Z,2.83
2018-05-25T01:48:37.693Z,2.83
2018-05-25T01:48:50.110Z,2.83
2018-05-25T01:49:02.501Z,2.83
2018-05-25T01:49:14.956Z,2.83
2018-05-25T01:49:27.415Z,2.83
2018-05-25T01:49:39.814Z,2.83
2018-05-25T01:49:52.217Z,2.83
2018-05-25T01:50:04.620Z,2.83
2018-05-25T01:50:17.037Z,2.83
2018-05-25T01:50:29.500Z,2.83
2018-05-25T01:50:41.912Z,2.83
2018-05-25T01:50:54.324Z,2.83
2018-05-25T01:51:06.736Z,2.83
2018-05-25T01:51:19.193Z,2.83
2018-05-25T01:51:31.593Z,3
2018-05-25T01:51:44.045Z,3
2018-05-25T01:51:56.460Z,3
2018-05-25T01:52:08.861Z,3
2018-05-25T01:52:21.422Z,3
2018-05-25T01:52:33.820Z,3
2018-05-25T01:52:46.241Z,3
2018-05-25T01:52:58.640Z,3
2018-05-25T01:53:11.045Z,3
2018-05-25T01:53:23.441Z,3
2018-05-25T01:53:35.858Z,3
2018-05-25T01:53:48.260Z,3
2018-05-25T01:54:00.670Z,3
2018-05-25T01:54:13.130Z,3
2018-05-25T01:54:25.541Z,3
2018-05-25T01:54:37.950Z,3
2018-05-25T01:54:50.359Z,3
2018-05-25T01:55:02.772Z,3
2018-05-25T01:55:15.375Z,3
2018-05-25T01:55:27.891Z,3
2018-05-25T01:55:40.293Z,3
2018-05-25T01:55:52.700Z,3
2018-05-25T01:56:05.106Z,3
2018-05-25T01:56:17.498Z,3
2018-05-25T01:56:29.889Z,3
2018-05-25T01:56:42.292Z,3
2018-05-25T01:56:54.691Z,3
2018-05-25T01:57:07.099Z,3
2018-05-25T01:57:19.512Z,3
2018-05-25T01:57:31.939Z,3
2018-05-25T01:57:44.342Z,3
2018-05-25T01:57:56.750Z,3
2018-05-25T01:58:09.170Z,3
2018-05-25T01:58:21.558Z,3
2018-05-25T01:58:33.962Z,3
2018-05-25T01:58:46.424Z,3
2018-05-25T01:58:58.823Z,3
2018-05-25T01:59:11.252Z,3
2018-05-25T01:59:23.662Z,3
2018-05-25T01:59:36.104Z,3
2018-05-25T01:59:48.514Z,3
2018-05-25T02:00:00.901Z,3
2018-05-25T02:00:13.340Z,3
2018-05-25T02:00:25.819Z,3
2018-05-25T02:00:38.279Z,3
2018-05-25T02:00:50.713Z,3
2018-05-25T02:01:03.144Z,3
2018-05-25T02:01:15.673Z,3
2018-05-25T02:01:28.090Z,2.95
2018-05-25T02:01:40.479Z,2.95
2018-05-25T02:01:53.032Z,2.95
2018-05-25T02:02:05.433Z,2.95
2018-05-25T02:02:17.828Z,2.95
2018-05-25T02:02:30.229Z,2.95
2018-05-25T02:02:42.649Z,2.95
2018-05-25T02:02:55.072Z,2.95
2018-05-25T02:03:07.471Z,2.95
2018-05-25T02:03:19.873Z,2.95
2018-05-25T02:03:32.280Z,2.95
2018-05-25T02:03:44.698Z,2.95
2018-05-25T02:03:57.083Z,2.95
2018-05-25T02:04:09.513Z,2.95
2018-05-25T02:04:21.909Z,2.95
2018-05-25T02:04:34.315Z,2.95
2018-05-25T02:04:46.712Z,2.95
2018-05-25T02:04:59.114Z,2.95
2018-05-25T02:05:11.685Z,2.95
2018-05-25T02:05:24.095Z,2.95
2018-05-25T02:05:36.546Z,2.95
2018-05-25T02:05:48.927Z,2.95
2018-05-25T02:06:01.319Z,2.95
2018-05-25T02:06:13.728Z,2.95
2018-05-25T02:06:26.136Z,2.95
2018-05-25T02:06:38.529Z,2.95
2018-05-25T02:06:50.933Z,2.95
2018-05-25T02:07:03.334Z,2.95
2018-05-25T02:07:15.737Z,2.95
2018-05-25T02:07:28.174Z,2.95
2018-05-25T02:07:40.588Z,2.95
2018-05-25T02:07:52.980Z,2.95
2018-05-25T02:08:05.391Z,2.95
2018-05-25T02:08:17.803Z,2.95
2018-05-25T02:08:30.257Z,2.95
2018-05-25T02:08:42.670Z,2.95
2018-05-25T02:08:55.129Z,2.95
2018-05-25T02:09:07.526Z,2.95
2018-05-25T02:09:19.956Z,2.95
2018-05-25T02:09:32.434Z,2.95
2018-05-25T02:09:44.845Z,2.95
2018-05-25T02:09:57.317Z,2.95
2018-05-25T02:10:09.769Z,2.95
2018-05-25T02:10:22.234Z,2.95
2018-05-25T02:10:34.653Z,2.95
2018-05-25T02:10:47.043Z,2.95
2018-05-25T02:10:59.469Z,2.95
2018-05-25T02:11:12.024Z,2.95
2018-05-25T02:11:24.768Z,2.95
2018-05-25T02:11:37.172Z,3.2
2018-05-25T02:11:49.568Z,3.2
2018-05-25T02:12:02.018Z,3.2
2018-05-25T02:12:14.439Z,3.2
2018-05-25T02:12:26.848Z,3.2
2018-05-25T02:12:39.262Z,3.2
2018-05-25T02:12:51.673Z,3.2
2018-05-25T02:13:04.090Z,3.2
2018-05-25T02:13:16.506Z,3.2
2018-05-25T02:13:28.915Z,3.2
2018-05-25T02:13:41.315Z,3.2
2018-05-25T02:13:53.718Z,3.2
2018-05-25T02:14:06.117Z,3.2
2018-05-25T02:14:18.539Z,3.2
2018-05-25T02:14:30.944Z,3.2
2018-05-25T02:14:43.348Z,3.2
2018-05-25T02:14:55.756Z,3.2
2018-05-25T02:15:08.235Z,3.2
2018-05-25T02:15:20.633Z,3.2
2018-05-25T02:15:33.045Z,3.2
2018-05-25T02:15:45.472Z,3.2
2018-05-25T02:15:57.916Z,3.2
2018-05-25T02:16:10.330Z,3.2
2018-05-25T02:16:22.744Z,3.2
2018-05-25T02:16:35.146Z,3.2
2018-05-25T02:16:47.540Z,3.2
2018-05-25T02:16:59.926Z,3.2
2018-05-25T02:17:12.362Z,3.2
2018-05-25T02:17:24.778Z,3.2
2018-05-25T02:17:37.181Z,3.2
2018-05-25T02:17:49.592Z,3.2
2018-05-25T02:18:02.358Z,3.2
2018-05-25T02:18:14.979Z,3.2
2018-05-25T02:18:27.388Z,3.2
2018-05-25T02:18:39.884Z,3.2
2018-05-25T02:18:52.275Z,3.2
2018-05-25T02:19:04.703Z,3.2
2018-05-25T02:19:17.112Z,3.2
2018-05-25T02:19:29.515Z,3.2
2018-05-25T02:19:41.920Z,3.2
2018-05-25T02:19:54.333Z,3.2
2018-05-25T02:20:06.726Z,3.2
2018-05-25T02:20:19.122Z,3.2
2018-05-25T02:20:31.528Z,3.2
2018-05-25T02:20:43.927Z,3.2
2018-05-25T02:20:56.327Z,3.2
2018-05-25T02:21:08.731Z,3.2
2018-05-25T02:21:21.139Z,3.2
2018-05-25T02:21:33.543Z,2.96
2018-05-25T02:21:45.940Z,2.96
2018-05-25T02:21:58.356Z,2.96
2018-05-25T02:22:10.774Z,2.96
2018-05-25T02:22:23.199Z,2.96
2018-05-25T02:22:35.648Z,2.96
2018-05-25T02:22:48.059Z,2.96
2018-05-25T02:23:00.473Z,2.96
2018-05-25T02:23:12.880Z,2.96
2018-05-25T02:23:25.349Z,2.96
2018-05-25T02:23:37.753Z,2.96
2018-05-25T02:23:50.155Z,2.96
2018-05-25T02:24:02.569Z,2.96
2018-05-25T02:24:14.974Z,2.96
2018-05-25T02:24:27.451Z,2.96
2018-05-25T02:24:39.852Z,2.96
2018-05-25T02:24:52.255Z,2.96
2018-05-25T02:25:04.682Z,2.96
2018-05-25T02:25:17.085Z,2.96
2018-05-25T02:25:29.493Z,2.96
2018-05-25T02:25:41.899Z,2.96
2018-05-25T02:25:54.311Z,2.96
2018-05-25T02:26:06.745Z,2.96
2018-05-25T02:26:19.183Z,2.96
2018-05-25T02:26:31.585Z,2.96
2018-05-25T02:26:43.995Z,2.96
2018-05-25T02:26:56.410Z,2.96
2018-05-25T02:27:08.819Z,2.96
2018-05-25T02:27:21.237Z,2.96
2018-05-25T02:27:33.631Z,2.96
2018-05-25T02:27:46.475Z,2.96
2018-05-25T02:27:58.887Z,2.96
2018-05-25T02:28:11.292Z,2.96
2018-05-25T02:28:23.681Z,2.96
2018-05-25T02:28:36.078Z,2.96
2018-05-25T02:28:48.500Z,2.96
2018-05-25T02:29:00.975Z,2.96
2018-05-25T02:29:13.375Z,2.96
2018-05-25T02:29:25.785Z,2.96
2018-05-25T02:29:38.244Z,2.96
2018-05-25T02:29:50.653Z,2.96
2018-05-25T02:30:03.078Z,2.96
2018-05-25T02:30:15.476Z,2.96
2018-05-25T02:30:27.896Z,2.96
2018-05-25T02:30:40.380Z,2.96
2018-05-25T02:30:52.775Z,2.96
2018-05-25T02:31:05.199Z,2.96
2018-05-25T02:31:17.617Z,2.96
2018-05-25T02:31:30.048Z,3.2
2018-05-25T02:31:42.464Z,3.2
2018-05-25T02:31:54.886Z,3.2
2018-05-25T02:32:07.320Z,3.2
2018-05-25T02:32:19.750Z,3.2
2018-05-25T02:32:32.209Z,3.2
2018-05-25T02:32:44.661Z,3.2
2018-05-25T02:32:57.117Z,3.2
2018-05-25T02:33:09.581Z,3.2
2018-05-25T02:33:21.997Z,3.2
2018-05-25T02:33:34.440Z,3.2
2018-05-25T02:33:46.871Z,3.2
2018-05-25T02:33:59.276Z,3.2
2018-05-25T02:34:11.709Z,3.2
2018-05-25T02:34:24.121Z,3.2
2018-05-25T02:34:36.555Z,3.2
2018-05-25T02:34:48.973Z,3.2
2018-05-25T02:35:01.384Z,3.2
2018-05-25T02:35:13.832Z,3.2
2018-05-25T02:35:26.245Z,3.2
2018-05-25T02:35:38.678Z,3.2
2018-05-25T02:35:51.157Z,3.2
2018-05-25T02:36:03.573Z,3.2
2018-05-25T02:36:15.997Z,3.2
2018-05-25T02:36:28.416Z,3.2
2018-05-25T02:36:40.865Z,3.2
2018-05-25T02:36:53.292Z,3.2
2018-05-25T02:37:05.704Z,3.2
2018-05-25T02:37:18.161Z,3.2
2018-05-25T02:37:30.601Z,3.2
2018-05-25T02:37:43.038Z,3.2
2018-05-25T02:37:55.467Z,3.2
2018-05-25T02:38:08.041Z,3.2
2018-05-25T02:38:20.471Z,3.2
2018-05-25T02:38:32.926Z,3.2
2018-05-25T02:38:46.018Z,3.2
2018-05-25T02:38:58.501Z,3.2
2018-05-25T02:39:10.939Z,3.2
2018-05-25T02:39:23.378Z,3.2
2018-05-25T02:39:35.807Z,3.2
2018-05-25T02:39:48.247Z,3.2
2018-05-25T02:40:00.671Z,3.2
2018-05-25T02:40:13.077Z,3.2
2018-05-25T02:40:25.492Z,3.2
2018-05-25T02:40:37.903Z,3.2
2018-05-25T02:40:50.325Z,3.2
2018-05-25T02:41:03.142Z,3.2
2018-05-25T02:41:15.574Z,3.2
2018-05-25T02:41:27.982Z,2.87
2018-05-25T02:41:40.430Z,2.87
2018-05-25T02:41:52.849Z,2.87
2018-05-25T02:42:05.281Z,2.87
2018-05-25T02:42:17.713Z,2.87
2018-05-25T02:42:30.109Z,2.87
2018-05-25T02:42:42.542Z,2.87
2018-05-25T02:42:54.951Z,2.87
2018-05-25T02:43:07.398Z,2.87
2018-05-25T02:43:19.822Z,2.87
2018-05-25T02:43:32.243Z,2.87
2018-05-25T02:43:44.668Z,2.87
2018-05-25T02:43:57.120Z,2.87
2018-05-25T02:44:09.593Z,2.87
2018-05-25T02:44:22.010Z,2.87
2018-05-25T02:44:34.499Z,2.87
2018-05-25T02:44:46.904Z,2.87
2018-05-25T02:44:59.322Z,2.87
2018-05-25T02:45:11.767Z,2.87
2018-05-25T02:45:24.173Z,2.87
2018-05-25T02:45:36.592Z,2.87
2018-05-25T02:45:49.031Z,2.87
2018-05-25T02:46:01.817Z,2.87
2018-05-25T02:46:14.270Z,2.87
2018-05-25T02:46:26.705Z,2.87
2018-05-25T02:46:39.140Z,2.87
2018-05-25T02:46:51.558Z,2.87
2018-05-25T02:47:03.976Z,2.87
2018-05-25T02:47:16.433Z,2.87
2018-05-25T02:47:28.861Z,2.87